sensor_id;sensor_type;location;lat;lon;timestamp;P1;durP1;ratioP1;P2;durP2;ratioP2
70153;SDS011;57519;51.494;-2.626;2023-04-16T00:00:22;5.60;;;4.13;;
70153;SDS011;57519;51.494;-2.626;2023-04-16T00:02:48;8.82;;;5.60;;
70153;SDS011;57519;51.494;-2.626;2023-04-16T00:05:14;13.03;;;5.67;;
70153;SDS011;57519;51.494;-2.626;2023-04-16T00:07:39;14.17;;;5.47;;
70153;SDS011;57519;51.494;-2.626;2023-04-16T00:10:06;10.68;;;5.68;;
70153;SDS011;57519;51.494;-2.626;2023-04-16T00:12:32;7.15;;;5.18;;
70153;SDS011;57519;51.494;-2.626;2023-04-16T00:14:57;6.70;;;5.80;;
70153;SDS011;57519;51.494;-2.626;2023-04-16T00:17:23;7.13;;;5.40;;
70153;SDS011;57519;51.494;-2.626;2023-04-16T00:19:48;8.75;;;4.75;;
70153;SDS011;57519;51.494;-2.626;2023-04-16T00:22:14;9.50;;;4.97;;
70153;SDS011;57519;51.494;-2.626;2023-04-16T00:24:39;9.07;;;5.27;;
70153;SDS011;57519;51.494;-2.626;2023-04-16T00:27:05;11.90;;;5.78;;
70153;SDS011;57519;51.494;-2.626;2023-04-16T00:29:30;7.97;;;5.17;;
70153;SDS011;57519;51.494;-2.626;2023-04-16T00:31:57;11.05;;;5.57;;
70153;SDS011;57519;51.494;-2.626;2023-04-16T00:34:23;8.57;;;5.83;;
70153;SDS011;57519;51.494;-2.626;2023-04-16T00:36:48;10.30;;;5.73;;
70153;SDS011;57519;51.494;-2.626;2023-04-16T00:39:14;10.30;;;5.05;;
70153;SDS011;57519;51.494;-2.626;2023-04-16T00:41:39;8.40;;;4.83;;
70153;SDS011;57519;51.494;-2.626;2023-04-16T00:44:05;8.80;;;5.07;;
70153;SDS011;57519;51.494;-2.626;2023-04-16T00:46:30;7.80;;;5.15;;
70153;SDS011;57519;51.494;-2.626;2023-04-16T00:48:58;11.20;;;6.13;;
70153;SDS011;57519;51.494;-2.626;2023-04-16T00:51:25;9.85;;;6.55;;
70153;SDS011;57519;51.494;-2.626;2023-04-16T00:53:51;6.22;;;5.40;;
70153;SDS011;57519;51.494;-2.626;2023-04-16T00:56:17;10.07;;;5.50;;
70153;SDS011;57519;51.494;-2.626;2023-04-16T00:58:43;9.93;;;5.20;;
70153;SDS011;57519;51.494;-2.626;2023-04-16T01:01:09;8.52;;;5.57;;
70153;SDS011;57519;51.494;-2.626;2023-04-16T01:03:38;8.40;;;5.77;;
70153;SDS011;57519;51.494;-2.626;2023-04-16T01:06:07;8.52;;;6.03;;
70153;SDS011;57519;51.494;-2.626;2023-04-16T01:08:33;8.07;;;5.55;;
70153;SDS011;57519;51.494;-2.626;2023-04-16T01:10:59;8.97;;;5.57;;
70153;SDS011;57519;51.494;-2.626;2023-04-16T01:13:24;8.37;;;5.30;;
70153;SDS011;57519;51.494;-2.626;2023-04-16T01:15:50;9.05;;;5.05;;
70153;SDS011;57519;51.494;-2.626;2023-04-16T01:18:17;10.27;;;4.77;;
70153;SDS011;57519;51.494;-2.626;2023-04-16T01:20:44;9.88;;;5.45;;
70153;SDS011;57519;51.494;-2.626;2023-04-16T01:23:10;10.20;;;5.20;;
70153;SDS011;57519;51.494;-2.626;2023-04-16T01:25:36;8.50;;;4.23;;
70153;SDS011;57519;51.494;-2.626;2023-04-16T01:28:02;9.38;;;5.10;;
70153;SDS011;57519;51.494;-2.626;2023-04-16T01:30:27;7.57;;;5.60;;
70153;SDS011;57519;51.494;-2.626;2023-04-16T01:32:53;7.70;;;4.97;;
70153;SDS011;57519;51.494;-2.626;2023-04-16T01:35:18;10.07;;;5.03;;
70153;SDS011;57519;51.494;-2.626;2023-04-16T01:37:44;7.57;;;5.17;;
70153;SDS011;57519;51.494;-2.626;2023-04-16T01:40:09;10.70;;;6.18;;
70153;SDS011;57519;51.494;-2.626;2023-04-16T01:42:35;8.40;;;5.27;;
70153;SDS011;57519;51.494;-2.626;2023-04-16T01:45:01;9.85;;;5.85;;
70153;SDS011;57519;51.494;-2.626;2023-04-16T01:47:27;8.50;;;5.47;;
70153;SDS011;57519;51.494;-2.626;2023-04-16T01:49:52;7.93;;;5.70;;
70153;SDS011;57519;51.494;-2.626;2023-04-16T01:52:18;8.17;;;5.43;;
70153;SDS011;57519;51.494;-2.626;2023-04-16T01:54:43;12.47;;;6.07;;
70153;SDS011;57519;51.494;-2.626;2023-04-16T01:57:09;9.55;;;6.20;;
70153;SDS011;57519;51.494;-2.626;2023-04-16T01:59:35;9.47;;;5.87;;
70153;SDS011;57519;51.494;-2.626;2023-04-16T02:02:06;11.45;;;5.90;;
70153;SDS011;57519;51.494;-2.626;2023-04-16T02:04:37;10.30;;;6.17;;
70153;SDS011;57519;51.494;-2.626;2023-04-16T02:07:05;10.38;;;6.82;;
70153;SDS011;57519;51.494;-2.626;2023-04-16T02:09:35;9.77;;;5.95;;
70153;SDS011;57519;51.494;-2.626;2023-04-16T02:12:02;9.60;;;6.22;;
70153;SDS011;57519;51.494;-2.626;2023-04-16T02:14:28;9.53;;;6.50;;
70153;SDS011;57519;51.494;-2.626;2023-04-16T02:16:54;10.07;;;6.35;;
70153;SDS011;57519;51.494;-2.626;2023-04-16T02:19:19;10.30;;;7.10;;
70153;SDS011;57519;51.494;-2.626;2023-04-16T02:21:45;9.45;;;6.38;;
70153;SDS011;57519;51.494;-2.626;2023-04-16T02:24:11;9.35;;;6.10;;
70153;SDS011;57519;51.494;-2.626;2023-04-16T02:26:37;9.00;;;7.00;;
70153;SDS011;57519;51.494;-2.626;2023-04-16T02:29:02;8.53;;;6.10;;
70153;SDS011;57519;51.494;-2.626;2023-04-16T02:31:27;10.02;;;6.00;;
70153;SDS011;57519;51.494;-2.626;2023-04-16T02:33:54;9.63;;;6.20;;
70153;SDS011;57519;51.494;-2.626;2023-04-16T02:36:19;15.55;;;6.60;;
70153;SDS011;57519;51.494;-2.626;2023-04-16T02:38:45;9.50;;;6.17;;
70153;SDS011;57519;51.494;-2.626;2023-04-16T02:41:11;11.03;;;7.07;;
70153;SDS011;57519;51.494;-2.626;2023-04-16T02:43:36;9.27;;;6.68;;
70153;SDS011;57519;51.494;-2.626;2023-04-16T02:46:02;9.70;;;6.17;;
70153;SDS011;57519;51.494;-2.626;2023-04-16T02:48:27;10.30;;;6.23;;
70153;SDS011;57519;51.494;-2.626;2023-04-16T02:50:52;9.60;;;6.40;;
70153;SDS011;57519;51.494;-2.626;2023-04-16T02:53:18;8.27;;;6.50;;
70153;SDS011;57519;51.494;-2.626;2023-04-16T02:55:53;8.37;;;5.60;;
70153;SDS011;57519;51.494;-2.626;2023-04-16T02:58:20;6.95;;;5.32;;
70153;SDS011;57519;51.494;-2.626;2023-04-16T03:00:46;7.55;;;5.93;;
70153;SDS011;57519;51.494;-2.626;2023-04-16T03:03:12;8.83;;;5.90;;
70153;SDS011;57519;51.494;-2.626;2023-04-16T03:05:38;8.20;;;5.95;;
70153;SDS011;57519;51.494;-2.626;2023-04-16T03:08:04;10.37;;;6.37;;
70153;SDS011;57519;51.494;-2.626;2023-04-16T03:10:30;7.15;;;6.32;;
70153;SDS011;57519;51.494;-2.626;2023-04-16T03:12:56;9.52;;;6.40;;
70153;SDS011;57519;51.494;-2.626;2023-04-16T03:15:21;9.00;;;5.90;;
70153;SDS011;57519;51.494;-2.626;2023-04-16T03:17:47;8.93;;;6.45;;
70153;SDS011;57519;51.494;-2.626;2023-04-16T03:20:12;9.20;;;6.00;;
70153;SDS011;57519;51.494;-2.626;2023-04-16T03:22:38;8.87;;;6.23;;
70153;SDS011;57519;51.494;-2.626;2023-04-16T03:25:04;9.23;;;6.18;;
70153;SDS011;57519;51.494;-2.626;2023-04-16T03:27:31;10.50;;;6.75;;
70153;SDS011;57519;51.494;-2.626;2023-04-16T03:29:57;13.30;;;6.13;;
70153;SDS011;57519;51.494;-2.626;2023-04-16T03:32:22;7.37;;;6.17;;
70153;SDS011;57519;51.494;-2.626;2023-04-16T03:34:48;7.77;;;5.80;;
70153;SDS011;57519;51.494;-2.626;2023-04-16T03:37:13;10.38;;;6.82;;
70153;SDS011;57519;51.494;-2.626;2023-04-16T03:39:39;11.27;;;7.13;;
70153;SDS011;57519;51.494;-2.626;2023-04-16T03:42:04;10.00;;;6.40;;
70153;SDS011;57519;51.494;-2.626;2023-04-16T03:44:30;9.80;;;6.17;;
70153;SDS011;57519;51.494;-2.626;2023-04-16T03:46:55;9.20;;;6.23;;
70153;SDS011;57519;51.494;-2.626;2023-04-16T03:49:20;9.13;;;6.00;;
70153;SDS011;57519;51.494;-2.626;2023-04-16T03:51:46;12.57;;;6.40;;
70153;SDS011;57519;51.494;-2.626;2023-04-16T03:54:11;9.97;;;6.67;;
70153;SDS011;57519;51.494;-2.626;2023-04-16T03:56:38;10.97;;;6.30;;
70153;SDS011;57519;51.494;-2.626;2023-04-16T03:59:05;8.60;;;5.68;;
70153;SDS011;57519;51.494;-2.626;2023-04-16T04:01:30;9.73;;;6.50;;
70153;SDS011;57519;51.494;-2.626;2023-04-16T04:03:56;8.73;;;6.43;;
70153;SDS011;57519;51.494;-2.626;2023-04-16T04:06:22;9.53;;;5.93;;
70153;SDS011;57519;51.494;-2.626;2023-04-16T04:08:47;8.38;;;5.80;;
70153;SDS011;57519;51.494;-2.626;2023-04-16T04:11:13;9.27;;;6.10;;
70153;SDS011;57519;51.494;-2.626;2023-04-16T04:13:38;11.87;;;5.97;;
70153;SDS011;57519;51.494;-2.626;2023-04-16T04:16:04;9.25;;;6.50;;
70153;SDS011;57519;51.494;-2.626;2023-04-16T04:18:30;10.13;;;6.13;;
70153;SDS011;57519;51.494;-2.626;2023-04-16T04:20:55;13.27;;;6.63;;
70153;SDS011;57519;51.494;-2.626;2023-04-16T04:23:21;7.45;;;5.75;;
70153;SDS011;57519;51.494;-2.626;2023-04-16T04:25:47;8.10;;;5.67;;
70153;SDS011;57519;51.494;-2.626;2023-04-16T04:28:12;11.03;;;6.03;;
70153;SDS011;57519;51.494;-2.626;2023-04-16T04:30:39;8.50;;;5.32;;
70153;SDS011;57519;51.494;-2.626;2023-04-16T04:33:05;8.43;;;5.35;;
70153;SDS011;57519;51.494;-2.626;2023-04-16T04:35:31;7.30;;;5.70;;
70153;SDS011;57519;51.494;-2.626;2023-04-16T04:37:56;10.10;;;5.70;;
70153;SDS011;57519;51.494;-2.626;2023-04-16T04:40:22;8.77;;;5.40;;
70153;SDS011;57519;51.494;-2.626;2023-04-16T04:42:47;11.97;;;5.10;;
70153;SDS011;57519;51.494;-2.626;2023-04-16T04:45:13;10.07;;;6.00;;
70153;SDS011;57519;51.494;-2.626;2023-04-16T04:47:38;11.93;;;5.40;;
70153;SDS011;57519;51.494;-2.626;2023-04-16T04:50:04;10.07;;;5.33;;
70153;SDS011;57519;51.494;-2.626;2023-04-16T04:52:30;8.90;;;5.38;;
70153;SDS011;57519;51.494;-2.626;2023-04-16T04:54:55;9.73;;;5.13;;
70153;SDS011;57519;51.494;-2.626;2023-04-16T04:57:21;6.30;;;5.57;;
70153;SDS011;57519;51.494;-2.626;2023-04-16T04:59:46;9.10;;;5.40;;
70153;SDS011;57519;51.494;-2.626;2023-04-16T05:02:11;6.70;;;4.97;;
70153;SDS011;57519;51.494;-2.626;2023-04-16T05:04:37;9.43;;;5.40;;
70153;SDS011;57519;51.494;-2.626;2023-04-16T05:07:02;10.20;;;5.60;;
70153;SDS011;57519;51.494;-2.626;2023-04-16T05:09:28;8.10;;;5.97;;
70153;SDS011;57519;51.494;-2.626;2023-04-16T05:11:53;10.70;;;6.10;;
70153;SDS011;57519;51.494;-2.626;2023-04-16T05:14:19;9.53;;;5.63;;
70153;SDS011;57519;51.494;-2.626;2023-04-16T05:16:44;8.90;;;6.07;;
70153;SDS011;57519;51.494;-2.626;2023-04-16T05:19:10;8.90;;;5.80;;
70153;SDS011;57519;51.494;-2.626;2023-04-16T05:21:35;8.73;;;5.57;;
70153;SDS011;57519;51.494;-2.626;2023-04-16T05:24:01;10.93;;;6.10;;
70153;SDS011;57519;51.494;-2.626;2023-04-16T05:26:27;8.40;;;5.60;;
70153;SDS011;57519;51.494;-2.626;2023-04-16T05:28:52;6.47;;;5.07;;
70153;SDS011;57519;51.494;-2.626;2023-04-16T05:31:18;8.07;;;5.13;;
70153;SDS011;57519;51.494;-2.626;2023-04-16T05:33:43;7.87;;;5.17;;
70153;SDS011;57519;51.494;-2.626;2023-04-16T05:36:08;9.43;;;6.00;;
70153;SDS011;57519;51.494;-2.626;2023-04-16T05:38:34;9.53;;;5.57;;
70153;SDS011;57519;51.494;-2.626;2023-04-16T05:40:59;11.53;;;6.30;;
70153;SDS011;57519;51.494;-2.626;2023-04-16T05:43:25;9.50;;;5.80;;
70153;SDS011;57519;51.494;-2.626;2023-04-16T05:45:50;10.33;;;5.83;;
70153;SDS011;57519;51.494;-2.626;2023-04-16T05:48:15;7.35;;;5.35;;
70153;SDS011;57519;51.494;-2.626;2023-04-16T05:50:41;9.40;;;5.13;;
70153;SDS011;57519;51.494;-2.626;2023-04-16T05:53:07;8.17;;;6.00;;
70153;SDS011;57519;51.494;-2.626;2023-04-16T05:55:33;13.63;;;6.20;;
70153;SDS011;57519;51.494;-2.626;2023-04-16T05:58:02;11.20;;;7.25;;
70153;SDS011;57519;51.494;-2.626;2023-04-16T06:00:29;10.38;;;6.80;;
70153;SDS011;57519;51.494;-2.626;2023-04-16T06:02:55;8.67;;;6.30;;
70153;SDS011;57519;51.494;-2.626;2023-04-16T06:05:20;11.05;;;6.72;;
70153;SDS011;57519;51.494;-2.626;2023-04-16T06:07:46;11.67;;;6.37;;
70153;SDS011;57519;51.494;-2.626;2023-04-16T06:10:11;11.03;;;6.13;;
70153;SDS011;57519;51.494;-2.626;2023-04-16T06:12:37;10.73;;;5.80;;
70153;SDS011;57519;51.494;-2.626;2023-04-16T06:15:03;13.55;;;6.68;;
70153;SDS011;57519;51.494;-2.626;2023-04-16T06:17:29;10.30;;;6.23;;
70153;SDS011;57519;51.494;-2.626;2023-04-16T06:19:54;10.65;;;6.25;;
70153;SDS011;57519;51.494;-2.626;2023-04-16T06:22:20;10.67;;;6.30;;
70153;SDS011;57519;51.494;-2.626;2023-04-16T06:24:45;9.53;;;6.90;;
70153;SDS011;57519;51.494;-2.626;2023-04-16T06:27:11;10.10;;;6.70;;
70153;SDS011;57519;51.494;-2.626;2023-04-16T06:29:36;12.43;;;6.23;;
70153;SDS011;57519;51.494;-2.626;2023-04-16T06:32:01;10.07;;;6.00;;
70153;SDS011;57519;51.494;-2.626;2023-04-16T06:34:27;7.07;;;5.53;;
70153;SDS011;57519;51.494;-2.626;2023-04-16T06:36:53;11.52;;;5.65;;
70153;SDS011;57519;51.494;-2.626;2023-04-16T06:39:19;10.13;;;5.60;;
70153;SDS011;57519;51.494;-2.626;2023-04-16T06:41:46;8.45;;;4.60;;
70153;SDS011;57519;51.494;-2.626;2023-04-16T06:44:12;8.93;;;5.63;;
70153;SDS011;57519;51.494;-2.626;2023-04-16T06:46:37;10.13;;;5.20;;
70153;SDS011;57519;51.494;-2.626;2023-04-16T06:49:03;7.97;;;5.07;;
70153;SDS011;57519;51.494;-2.626;2023-04-16T06:51:28;7.47;;;5.03;;
70153;SDS011;57519;51.494;-2.626;2023-04-16T06:53:54;9.37;;;5.57;;
70153;SDS011;57519;51.494;-2.626;2023-04-16T06:56:20;11.70;;;5.50;;
70153;SDS011;57519;51.494;-2.626;2023-04-16T06:58:45;7.70;;;5.40;;
70153;SDS011;57519;51.494;-2.626;2023-04-16T07:01:10;9.90;;;4.70;;
70153;SDS011;57519;51.494;-2.626;2023-04-16T07:03:36;10.23;;;5.13;;
70153;SDS011;57519;51.494;-2.626;2023-04-16T07:06:01;8.85;;;5.20;;
70153;SDS011;57519;51.494;-2.626;2023-04-16T07:08:27;9.27;;;4.90;;
70153;SDS011;57519;51.494;-2.626;2023-04-16T07:10:52;9.27;;;5.97;;
70153;SDS011;57519;51.494;-2.626;2023-04-16T07:13:18;7.78;;;5.40;;
70153;SDS011;57519;51.494;-2.626;2023-04-16T07:15:44;10.50;;;4.88;;
70153;SDS011;57519;51.494;-2.626;2023-04-16T07:18:10;8.43;;;5.37;;
70153;SDS011;57519;51.494;-2.626;2023-04-16T07:20:35;9.07;;;5.07;;
70153;SDS011;57519;51.494;-2.626;2023-04-16T07:23:01;8.20;;;4.70;;
70153;SDS011;57519;51.494;-2.626;2023-04-16T07:25:26;10.43;;;5.20;;
70153;SDS011;57519;51.494;-2.626;2023-04-16T07:27:52;7.47;;;4.30;;
70153;SDS011;57519;51.494;-2.626;2023-04-16T07:30:17;11.07;;;4.70;;
70153;SDS011;57519;51.494;-2.626;2023-04-16T07:32:43;9.82;;;5.00;;
70153;SDS011;57519;51.494;-2.626;2023-04-16T07:35:08;11.03;;;5.27;;
70153;SDS011;57519;51.494;-2.626;2023-04-16T07:37:34;9.20;;;5.50;;
70153;SDS011;57519;51.494;-2.626;2023-04-16T07:39:59;10.57;;;5.30;;
70153;SDS011;57519;51.494;-2.626;2023-04-16T07:42:28;9.93;;;5.07;;
70153;SDS011;57519;51.494;-2.626;2023-04-16T07:44:54;9.63;;;5.38;;
70153;SDS011;57519;51.494;-2.626;2023-04-16T07:47:19;10.07;;;4.93;;
70153;SDS011;57519;51.494;-2.626;2023-04-16T07:49:46;9.25;;;5.22;;
70153;SDS011;57519;51.494;-2.626;2023-04-16T07:52:12;6.97;;;4.60;;
70153;SDS011;57519;51.494;-2.626;2023-04-16T07:54:38;7.03;;;4.47;;
70153;SDS011;57519;51.494;-2.626;2023-04-16T07:57:03;12.00;;;4.93;;
70153;SDS011;57519;51.494;-2.626;2023-04-16T07:59:29;7.50;;;4.70;;
70153;SDS011;57519;51.494;-2.626;2023-04-16T08:01:54;7.40;;;4.30;;
70153;SDS011;57519;51.494;-2.626;2023-04-16T08:04:20;8.47;;;4.30;;
70153;SDS011;57519;51.494;-2.626;2023-04-16T08:06:49;5.38;;;3.90;;
70153;SDS011;57519;51.494;-2.626;2023-04-16T08:09:15;5.90;;;3.67;;
70153;SDS011;57519;51.494;-2.626;2023-04-16T08:11:40;6.18;;;3.72;;
70153;SDS011;57519;51.494;-2.626;2023-04-16T08:14:06;10.97;;;3.87;;
70153;SDS011;57519;51.494;-2.626;2023-04-16T08:16:31;5.27;;;3.87;;
70153;SDS011;57519;51.494;-2.626;2023-04-16T08:18:57;7.90;;;4.20;;
70153;SDS011;57519;51.494;-2.626;2023-04-16T08:21:25;9.82;;;4.18;;
70153;SDS011;57519;51.494;-2.626;2023-04-16T08:23:52;6.82;;;3.60;;
70153;SDS011;57519;51.494;-2.626;2023-04-16T08:26:18;5.65;;;3.90;;
70153;SDS011;57519;51.494;-2.626;2023-04-16T08:28:44;5.80;;;3.45;;
70153;SDS011;57519;51.494;-2.626;2023-04-16T08:31:10;4.93;;;3.33;;
70153;SDS011;57519;51.494;-2.626;2023-04-16T08:33:36;6.32;;;3.85;;
70153;SDS011;57519;51.494;-2.626;2023-04-16T08:36:01;7.80;;;3.63;;
70153;SDS011;57519;51.494;-2.626;2023-04-16T08:38:28;9.07;;;3.65;;
70153;SDS011;57519;51.494;-2.626;2023-04-16T08:40:55;5.45;;;3.17;;
70153;SDS011;57519;51.494;-2.626;2023-04-16T08:43:22;6.57;;;3.67;;
70153;SDS011;57519;51.494;-2.626;2023-04-16T08:45:49;6.43;;;3.15;;
70153;SDS011;57519;51.494;-2.626;2023-04-16T08:48:17;5.00;;;3.17;;
70153;SDS011;57519;51.494;-2.626;2023-04-16T08:50:46;7.47;;;3.85;;
70153;SDS011;57519;51.494;-2.626;2023-04-16T08:53:17;8.18;;;4.05;;
70153;SDS011;57519;51.494;-2.626;2023-04-16T08:55:48;6.87;;;3.70;;
70153;SDS011;57519;51.494;-2.626;2023-04-16T08:58:18;5.63;;;3.60;;
70153;SDS011;57519;51.494;-2.626;2023-04-16T09:00:46;6.35;;;3.30;;
70153;SDS011;57519;51.494;-2.626;2023-04-16T09:03:12;6.35;;;3.63;;
70153;SDS011;57519;51.494;-2.626;2023-04-16T09:05:38;5.73;;;3.33;;
70153;SDS011;57519;51.494;-2.626;2023-04-16T09:08:04;7.10;;;3.17;;
70153;SDS011;57519;51.494;-2.626;2023-04-16T09:10:31;6.55;;;3.70;;
70153;SDS011;57519;51.494;-2.626;2023-04-16T09:12:57;6.37;;;3.27;;
70153;SDS011;57519;51.494;-2.626;2023-04-16T09:15:23;6.47;;;3.03;;
70153;SDS011;57519;51.494;-2.626;2023-04-16T09:17:51;6.70;;;3.60;;
70153;SDS011;57519;51.494;-2.626;2023-04-16T09:20:18;5.30;;;3.10;;
70153;SDS011;57519;51.494;-2.626;2023-04-16T09:22:44;5.40;;;3.40;;
70153;SDS011;57519;51.494;-2.626;2023-04-16T09:25:10;5.60;;;3.40;;
70153;SDS011;57519;51.494;-2.626;2023-04-16T09:27:36;5.45;;;3.40;;
70153;SDS011;57519;51.494;-2.626;2023-04-16T09:30:24;6.93;;;3.57;;
70153;SDS011;57519;51.494;-2.626;2023-04-16T09:32:50;7.97;;;3.45;;
70153;SDS011;57519;51.494;-2.626;2023-04-16T09:35:19;5.43;;;3.45;;
70153;SDS011;57519;51.494;-2.626;2023-04-16T09:37:57;4.65;;;3.28;;
70153;SDS011;57519;51.494;-2.626;2023-04-16T09:40:23;8.27;;;3.58;;
70153;SDS011;57519;51.494;-2.626;2023-04-16T09:42:50;6.37;;;3.30;;
70153;SDS011;57519;51.494;-2.626;2023-04-16T09:45:16;7.15;;;3.30;;
70153;SDS011;57519;51.494;-2.626;2023-04-16T09:47:42;5.97;;;3.20;;
70153;SDS011;57519;51.494;-2.626;2023-04-16T09:50:09;5.60;;;3.03;;
70153;SDS011;57519;51.494;-2.626;2023-04-16T09:52:38;4.35;;;3.03;;
70153;SDS011;57519;51.494;-2.626;2023-04-16T09:55:04;6.97;;;3.30;;
70153;SDS011;57519;51.494;-2.626;2023-04-16T09:57:30;5.88;;;3.20;;
70153;SDS011;57519;51.494;-2.626;2023-04-16T10:00:05;7.20;;;3.78;;
70153;SDS011;57519;51.494;-2.626;2023-04-16T10:02:33;7.45;;;2.97;;
70153;SDS011;57519;51.494;-2.626;2023-04-16T10:05:02;5.23;;;3.50;;
70153;SDS011;57519;51.494;-2.626;2023-04-16T10:07:30;5.60;;;3.25;;
70153;SDS011;57519;51.494;-2.626;2023-04-16T10:09:58;5.72;;;3.33;;
70153;SDS011;57519;51.494;-2.626;2023-04-16T10:12:24;4.75;;;3.10;;
70153;SDS011;57519;51.494;-2.626;2023-04-16T10:14:51;8.83;;;3.47;;
70153;SDS011;57519;51.494;-2.626;2023-04-16T10:17:16;4.22;;;2.72;;
70153;SDS011;57519;51.494;-2.626;2023-04-16T10:19:42;8.53;;;3.30;;
70153;SDS011;57519;51.494;-2.626;2023-04-16T10:22:09;5.30;;;2.63;;
70153;SDS011;57519;51.494;-2.626;2023-04-16T10:24:35;5.35;;;2.97;;
70153;SDS011;57519;51.494;-2.626;2023-04-16T10:27:00;4.60;;;2.93;;
70153;SDS011;57519;51.494;-2.626;2023-04-16T10:29:27;5.70;;;3.20;;
70153;SDS011;57519;51.494;-2.626;2023-04-16T10:31:54;4.15;;;2.83;;
70153;SDS011;57519;51.494;-2.626;2023-04-16T10:34:21;5.82;;;2.90;;
70153;SDS011;57519;51.494;-2.626;2023-04-16T10:36:48;4.67;;;3.50;;
70153;SDS011;57519;51.494;-2.626;2023-04-16T10:39:16;7.63;;;3.30;;
70153;SDS011;57519;51.494;-2.626;2023-04-16T10:41:44;5.97;;;3.03;;
70153;SDS011;57519;51.494;-2.626;2023-04-16T10:44:09;6.47;;;3.30;;
70153;SDS011;57519;51.494;-2.626;2023-04-16T10:49:23;8.07;;;3.33;;
70153;SDS011;57519;51.494;-2.626;2023-04-16T10:51:56;5.05;;;2.83;;
70153;SDS011;57519;51.494;-2.626;2023-04-16T10:54:25;5.40;;;3.38;;
70153;SDS011;57519;51.494;-2.626;2023-04-16T10:56:51;4.70;;;3.20;;
70153;SDS011;57519;51.494;-2.626;2023-04-16T10:59:20;8.45;;;3.30;;
70153;SDS011;57519;51.494;-2.626;2023-04-16T11:01:48;5.23;;;2.77;;
70153;SDS011;57519;51.494;-2.626;2023-04-16T11:07:31;4.83;;;3.17;;
70153;SDS011;57519;51.494;-2.626;2023-04-16T11:09:45;4.07;;;2.75;;
70153;SDS011;57519;51.494;-2.626;2023-04-16T11:14:58;4.83;;;3.13;;
70153;SDS011;57519;51.494;-2.626;2023-04-16T11:17:34;5.40;;;3.45;;
70153;SDS011;57519;51.494;-2.626;2023-04-16T11:20:06;5.68;;;4.00;;
70153;SDS011;57519;51.494;-2.626;2023-04-16T11:22:34;6.93;;;3.22;;
70153;SDS011;57519;51.494;-2.626;2023-04-16T11:25:03;6.43;;;2.80;;
70153;SDS011;57519;51.494;-2.626;2023-04-16T11:27:29;7.40;;;3.80;;
70153;SDS011;57519;51.494;-2.626;2023-04-16T11:29:59;5.57;;;3.22;;
70153;SDS011;57519;51.494;-2.626;2023-04-16T11:32:31;6.57;;;3.58;;
70153;SDS011;57519;51.494;-2.626;2023-04-16T11:34:58;5.40;;;3.47;;
70153;SDS011;57519;51.494;-2.626;2023-04-16T11:37:33;6.15;;;3.13;;
70153;SDS011;57519;51.494;-2.626;2023-04-16T11:40:00;6.15;;;3.67;;
70153;SDS011;57519;51.494;-2.626;2023-04-16T11:42:28;6.75;;;3.85;;
70153;SDS011;57519;51.494;-2.626;2023-04-16T11:44:54;5.60;;;3.63;;
70153;SDS011;57519;51.494;-2.626;2023-04-16T11:47:21;6.00;;;3.33;;
70153;SDS011;57519;51.494;-2.626;2023-04-16T11:49:48;9.98;;;3.63;;
70153;SDS011;57519;51.494;-2.626;2023-04-16T11:52:14;7.77;;;3.57;;
70153;SDS011;57519;51.494;-2.626;2023-04-16T11:54:57;6.57;;;3.13;;
70153;SDS011;57519;51.494;-2.626;2023-04-16T11:57:26;5.45;;;2.90;;
70153;SDS011;57519;51.494;-2.626;2023-04-16T11:59:54;5.70;;;3.20;;
70153;SDS011;57519;51.494;-2.626;2023-04-16T12:05:07;5.90;;;3.30;;
70153;SDS011;57519;51.494;-2.626;2023-04-16T12:07:50;6.13;;;3.45;;
70153;SDS011;57519;51.494;-2.626;2023-04-16T12:10:16;4.70;;;3.70;;
70153;SDS011;57519;51.494;-2.626;2023-04-16T12:12:41;7.37;;;4.00;;
70153;SDS011;57519;51.494;-2.626;2023-04-16T12:15:07;6.20;;;3.47;;
70153;SDS011;57519;51.494;-2.626;2023-04-16T12:17:33;9.27;;;3.38;;
70153;SDS011;57519;51.494;-2.626;2023-04-16T12:20:00;7.00;;;3.20;;
70153;SDS011;57519;51.494;-2.626;2023-04-16T12:22:30;7.50;;;3.63;;
70153;SDS011;57519;51.494;-2.626;2023-04-16T12:24:59;5.05;;;3.30;;
70153;SDS011;57519;51.494;-2.626;2023-04-16T12:30:15;5.18;;;2.80;;
70153;SDS011;57519;51.494;-2.626;2023-04-16T12:32:42;4.43;;;2.75;;
70153;SDS011;57519;51.494;-2.626;2023-04-16T12:35:10;5.13;;;2.90;;
70153;SDS011;57519;51.494;-2.626;2023-04-16T12:37:36;6.72;;;2.75;;
70153;SDS011;57519;51.494;-2.626;2023-04-16T12:40:03;5.30;;;2.78;;
70153;SDS011;57519;51.494;-2.626;2023-04-16T12:42:29;8.23;;;3.15;;
70153;SDS011;57519;51.494;-2.626;2023-04-16T12:45:00;4.97;;;2.95;;
70153;SDS011;57519;51.494;-2.626;2023-04-16T12:47:28;6.13;;;3.07;;
70153;SDS011;57519;51.494;-2.626;2023-04-16T12:49:55;4.15;;;2.90;;
70153;SDS011;57519;51.494;-2.626;2023-04-16T12:52:21;4.38;;;2.83;;
70153;SDS011;57519;51.494;-2.626;2023-04-16T12:54:47;5.40;;;3.40;;
70153;SDS011;57519;51.494;-2.626;2023-04-16T12:57:12;7.80;;;3.27;;
70153;SDS011;57519;51.494;-2.626;2023-04-16T12:59:38;4.43;;;3.10;;
70153;SDS011;57519;51.494;-2.626;2023-04-16T13:02:03;4.77;;;3.50;;
70153;SDS011;57519;51.494;-2.626;2023-04-16T13:04:29;4.35;;;3.20;;
70153;SDS011;57519;51.494;-2.626;2023-04-16T13:06:54;5.73;;;2.93;;
70153;SDS011;57519;51.494;-2.626;2023-04-16T13:09:20;4.90;;;3.53;;
70153;SDS011;57519;51.494;-2.626;2023-04-16T13:11:45;8.33;;;4.43;;
70153;SDS011;57519;51.494;-2.626;2023-04-16T13:14:11;6.97;;;3.80;;
70153;SDS011;57519;51.494;-2.626;2023-04-16T13:16:36;6.13;;;3.90;;
70153;SDS011;57519;51.494;-2.626;2023-04-16T13:19:02;4.88;;;3.50;;
70153;SDS011;57519;51.494;-2.626;2023-04-16T13:21:28;8.80;;;3.65;;
70153;SDS011;57519;51.494;-2.626;2023-04-16T13:23:54;6.60;;;3.50;;
70153;SDS011;57519;51.494;-2.626;2023-04-16T13:26:19;6.37;;;3.40;;
70153;SDS011;57519;51.494;-2.626;2023-04-16T13:28:46;8.38;;;4.38;;
70153;SDS011;57519;51.494;-2.626;2023-04-16T13:31:11;8.07;;;3.20;;
70153;SDS011;57519;51.494;-2.626;2023-04-16T13:33:37;8.07;;;3.58;;
70153;SDS011;57519;51.494;-2.626;2023-04-16T13:36:02;6.13;;;4.33;;
70153;SDS011;57519;51.494;-2.626;2023-04-16T13:38:28;8.40;;;3.25;;
70153;SDS011;57519;51.494;-2.626;2023-04-16T13:40:53;5.20;;;4.03;;
70153;SDS011;57519;51.494;-2.626;2023-04-16T13:43:19;8.10;;;3.80;;
70153;SDS011;57519;51.494;-2.626;2023-04-16T13:45:46;6.88;;;4.20;;
70153;SDS011;57519;51.494;-2.626;2023-04-16T13:48:11;9.73;;;3.83;;
70153;SDS011;57519;51.494;-2.626;2023-04-16T13:50:37;5.70;;;3.22;;
70153;SDS011;57519;51.494;-2.626;2023-04-16T13:53:02;7.63;;;3.63;;
70153;SDS011;57519;51.494;-2.626;2023-04-16T13:55:32;5.90;;;3.95;;
70153;SDS011;57519;51.494;-2.626;2023-04-16T13:57:57;10.68;;;4.28;;
70153;SDS011;57519;51.494;-2.626;2023-04-16T14:00:24;6.43;;;3.13;;
70153;SDS011;57519;51.494;-2.626;2023-04-16T14:02:50;9.02;;;4.45;;
70153;SDS011;57519;51.494;-2.626;2023-04-16T14:05:16;8.45;;;3.72;;
70153;SDS011;57519;51.494;-2.626;2023-04-16T14:07:43;6.70;;;3.77;;
70153;SDS011;57519;51.494;-2.626;2023-04-16T14:10:09;8.43;;;3.95;;
70153;SDS011;57519;51.494;-2.626;2023-04-16T14:12:35;8.80;;;4.18;;
70153;SDS011;57519;51.494;-2.626;2023-04-16T14:15:02;7.78;;;4.10;;
70153;SDS011;57519;51.494;-2.626;2023-04-16T14:17:30;10.38;;;3.95;;
70153;SDS011;57519;51.494;-2.626;2023-04-16T14:19:56;8.47;;;4.17;;
70153;SDS011;57519;51.494;-2.626;2023-04-16T14:22:21;9.83;;;3.53;;
70153;SDS011;57519;51.494;-2.626;2023-04-16T14:24:46;8.53;;;3.77;;
70153;SDS011;57519;51.494;-2.626;2023-04-16T14:27:12;6.78;;;3.35;;
70153;SDS011;57519;51.494;-2.626;2023-04-16T14:29:37;8.00;;;4.03;;
70153;SDS011;57519;51.494;-2.626;2023-04-16T14:32:03;5.43;;;3.73;;
70153;SDS011;57519;51.494;-2.626;2023-04-16T14:34:28;6.65;;;4.10;;
70153;SDS011;57519;51.494;-2.626;2023-04-16T14:36:54;7.63;;;3.50;;
70153;SDS011;57519;51.494;-2.626;2023-04-16T14:39:19;6.50;;;3.57;;